sensor_id;sensor_type;location;lat;lon;timestamp;P1;durP1;ratioP1;P2;durP2;ratioP2
15567;SDS011;7885;42.596;23.044;2023-02-12T00:00:05;54.27;;;32.73;;
15567;SDS011;7885;42.596;23.044;2023-02-12T00:02:33;53.87;;;32.20;;
15567;SDS011;7885;42.596;23.044;2023-02-12T00:08:21;42.67;;;25.33;;
15567;SDS011;7885;42.596;23.044;2023-02-12T00:10:47;48.47;;;27.83;;
15567;SDS011;7885;42.596;23.044;2023-02-12T00:13:14;39.70;;;23.60;;
15567;SDS011;7885;42.596;23.044;2023-02-12T00:15:42;40.83;;;24.97;;
15567;SDS011;7885;42.596;23.044;2023-02-12T00:18:09;42.93;;;25.33;;
15567;SDS011;7885;42.596;23.044;2023-02-12T00:20:36;41.73;;;25.00;;
15567;SDS011;7885;42.596;23.044;2023-02-12T00:23:04;43.90;;;26.17;;
15567;SDS011;7885;42.596;23.044;2023-02-12T00:25:31;43.43;;;26.77;;
15567;SDS011;7885;42.596;23.044;2023-02-12T00:27:58;49.53;;;28.77;;
15567;SDS011;7885;42.596;23.044;2023-02-12T00:30:25;42.63;;;26.60;;
15567;SDS011;7885;42.596;23.044;2023-02-12T00:32:53;43.93;;;26.97;;
15567;SDS011;7885;42.596;23.044;2023-02-12T00:35:19;45.83;;;27.57;;
15567;SDS011;7885;42.596;23.044;2023-02-12T00:37:46;47.70;;;26.33;;
15567;SDS011;7885;42.596;23.044;2023-02-12T00:40:13;38.13;;;22.30;;
15567;SDS011;7885;42.596;23.044;2023-02-12T00:42:39;46.23;;;30.27;;
15567;SDS011;7885;42.596;23.044;2023-02-12T00:45:07;44.83;;;27.40;;
15567;SDS011;7885;42.596;23.044;2023-02-12T00:47:34;41.93;;;28.10;;
15567;SDS011;7885;42.596;23.044;2023-02-12T00:50:02;57.80;;;34.50;;
15567;SDS011;7885;42.596;23.044;2023-02-12T00:52:29;49.27;;;29.73;;
15567;SDS011;7885;42.596;23.044;2023-02-12T00:54:56;58.77;;;34.07;;
15567;SDS011;7885;42.596;23.044;2023-02-12T00:57:22;47.90;;;29.17;;
15567;SDS011;7885;42.596;23.044;2023-02-12T00:59:49;51.50;;;29.03;;
15567;SDS011;7885;42.596;23.044;2023-02-12T01:02:16;47.60;;;27.83;;
15567;SDS011;7885;42.596;23.044;2023-02-12T01:04:43;46.67;;;28.97;;
15567;SDS011;7885;42.596;23.044;2023-02-12T01:07:11;48.40;;;28.17;;
15567;SDS011;7885;42.596;23.044;2023-02-12T01:09:38;49.27;;;27.67;;
15567;SDS011;7885;42.596;23.044;2023-02-12T01:12:05;43.10;;;25.07;;
15567;SDS011;7885;42.596;23.044;2023-02-12T01:14:31;44.27;;;25.87;;
15567;SDS011;7885;42.596;23.044;2023-02-12T01:16:58;44.87;;;28.43;;
15567;SDS011;7885;42.596;23.044;2023-02-12T01:19:25;63.93;;;38.43;;
15567;SDS011;7885;42.596;23.044;2023-02-12T01:21:52;74.73;;;35.87;;
15567;SDS011;7885;42.596;23.044;2023-02-12T01:24:20;72.57;;;35.40;;
15567;SDS011;7885;42.596;23.044;2023-02-12T01:26:47;68.57;;;36.93;;
15567;SDS011;7885;42.596;23.044;2023-02-12T01:29:13;88.20;;;45.13;;
15567;SDS011;7885;42.596;23.044;2023-02-12T01:31:40;55.57;;;32.87;;
15567;SDS011;7885;42.596;23.044;2023-02-12T01:34:08;47.70;;;29.13;;
15567;SDS011;7885;42.596;23.044;2023-02-12T01:36:35;53.90;;;29.17;;
15567;SDS011;7885;42.596;23.044;2023-02-12T01:39:02;53.27;;;33.63;;
15567;SDS011;7885;42.596;23.044;2023-02-12T01:41:32;53.90;;;30.87;;
15567;SDS011;7885;42.596;23.044;2023-02-12T01:44:08;44.73;;;26.10;;
15567;SDS011;7885;42.596;23.044;2023-02-12T01:46:37;55.17;;;32.27;;
15567;SDS011;7885;42.596;23.044;2023-02-12T01:49:05;54.67;;;31.23;;
15567;SDS011;7885;42.596;23.044;2023-02-12T01:51:34;78.73;;;43.90;;
15567;SDS011;7885;42.596;23.044;2023-02-12T01:54:04;49.20;;;30.20;;
15567;SDS011;7885;42.596;23.044;2023-02-12T01:56:34;89.63;;;46.77;;
15567;SDS011;7885;42.596;23.044;2023-02-12T01:59:02;93.27;;;50.40;;
15567;SDS011;7885;42.596;23.044;2023-02-12T02:01:29;85.03;;;46.57;;
15567;SDS011;7885;42.596;23.044;2023-02-12T02:03:58;75.83;;;40.73;;
15567;SDS011;7885;42.596;23.044;2023-02-12T02:06:29;95.60;;;46.20;;
15567;SDS011;7885;42.596;23.044;2023-02-12T02:08:58;86.60;;;45.07;;
15567;SDS011;7885;42.596;23.044;2023-02-12T02:11:26;91.37;;;48.03;;
15567;SDS011;7885;42.596;23.044;2023-02-12T02:14:12;88.00;;;45.50;;
15567;SDS011;7885;42.596;23.044;2023-02-12T02:17:02;68.80;;;39.27;;
15567;SDS011;7885;42.596;23.044;2023-02-12T02:19:44;70.30;;;39.73;;
15567;SDS011;7885;42.596;23.044;2023-02-12T02:22:28;61.73;;;36.63;;
15567;SDS011;7885;42.596;23.044;2023-02-12T02:25:07;66.10;;;38.33;;
15567;SDS011;7885;42.596;23.044;2023-02-12T02:27:57;72.20;;;41.63;;
15567;SDS011;7885;42.596;23.044;2023-02-12T02:30:37;82.90;;;43.70;;
15567;SDS011;7885;42.596;23.044;2023-02-12T02:33:12;75.40;;;42.07;;
15567;SDS011;7885;42.596;23.044;2023-02-12T02:35:48;105.27;;;51.03;;
15567;SDS011;7885;42.596;23.044;2023-02-12T02:38:22;95.77;;;52.13;;
15567;SDS011;7885;42.596;23.044;2023-02-12T02:40:55;103.03;;;52.53;;
15567;SDS011;7885;42.596;23.044;2023-02-12T02:43:28;90.50;;;48.07;;
15567;SDS011;7885;42.596;23.044;2023-02-12T02:46:02;88.80;;;50.13;;
15567;SDS011;7885;42.596;23.044;2023-02-12T02:48:33;80.40;;;45.83;;
15567;SDS011;7885;42.596;23.044;2023-02-12T02:51:03;78.03;;;45.17;;
15567;SDS011;7885;42.596;23.044;2023-02-12T02:53:36;59.07;;;33.53;;
15567;SDS011;7885;42.596;23.044;2023-02-12T02:56:07;64.67;;;35.80;;
15567;SDS011;7885;42.596;23.044;2023-02-12T02:58:40;59.30;;;35.77;;
15567;SDS011;7885;42.596;23.044;2023-02-12T03:01:12;63.47;;;37.57;;
15567;SDS011;7885;42.596;23.044;2023-02-12T03:03:44;71.23;;;42.27;;
15567;SDS011;7885;42.596;23.044;2023-02-12T03:06:17;87.03;;;46.33;;
15567;SDS011;7885;42.596;23.044;2023-02-12T03:08:51;64.63;;;37.23;;
15567;SDS011;7885;42.596;23.044;2023-02-12T03:11:23;71.23;;;39.30;;
15567;SDS011;7885;42.596;23.044;2023-02-12T03:13:54;79.47;;;44.80;;
15567;SDS011;7885;42.596;23.044;2023-02-12T03:16:28;66.00;;;39.53;;
15567;SDS011;7885;42.596;23.044;2023-02-12T03:18:58;69.67;;;38.10;;
15567;SDS011;7885;42.596;23.044;2023-02-12T03:21:33;63.83;;;36.83;;
15567;SDS011;7885;42.596;23.044;2023-02-12T03:24:09;87.10;;;38.87;;
15567;SDS011;7885;42.596;23.044;2023-02-12T03:26:41;103.23;;;38.53;;
15567;SDS011;7885;42.596;23.044;2023-02-12T03:29:11;76.40;;;34.67;;
15567;SDS011;7885;42.596;23.044;2023-02-12T03:31:43;39.60;;;25.30;;
15567;SDS011;7885;42.596;23.044;2023-02-12T03:34:23;43.73;;;28.20;;
15567;SDS011;7885;42.596;23.044;2023-02-12T03:36:56;44.17;;;29.30;;
15567;SDS011;7885;42.596;23.044;2023-02-12T03:39:28;42.90;;;28.10;;
15567;SDS011;7885;42.596;23.044;2023-02-12T03:42:00;43.13;;;26.63;;
15567;SDS011;7885;42.596;23.044;2023-02-12T03:44:34;38.53;;;25.27;;
15567;SDS011;7885;42.596;23.044;2023-02-12T03:47:15;43.63;;;26.00;;
15567;SDS011;7885;42.596;23.044;2023-02-12T03:49:47;53.03;;;31.60;;
15567;SDS011;7885;42.596;23.044;2023-02-12T03:52:20;52.23;;;31.40;;
15567;SDS011;7885;42.596;23.044;2023-02-12T03:54:47;51.30;;;31.57;;
15567;SDS011;7885;42.596;23.044;2023-02-12T03:57:16;49.13;;;30.27;;
15567;SDS011;7885;42.596;23.044;2023-02-12T03:59:45;48.03;;;30.27;;
15567;SDS011;7885;42.596;23.044;2023-02-12T04:02:15;45.67;;;28.40;;
15567;SDS011;7885;42.596;23.044;2023-02-12T04:04:44;50.63;;;31.27;;
15567;SDS011;7885;42.596;23.044;2023-02-12T04:07:12;50.33;;;32.90;;
15567;SDS011;7885;42.596;23.044;2023-02-12T04:09:41;56.27;;;33.90;;
15567;SDS011;7885;42.596;23.044;2023-02-12T04:12:11;57.13;;;32.57;;
15567;SDS011;7885;42.596;23.044;2023-02-12T04:14:48;50.00;;;29.47;;
15567;SDS011;7885;42.596;23.044;2023-02-12T04:17:21;47.20;;;26.90;;
15567;SDS011;7885;42.596;23.044;2023-02-12T04:20:02;38.30;;;25.97;;
15567;SDS011;7885;42.596;23.044;2023-02-12T04:22:37;45.83;;;27.27;;
15567;SDS011;7885;42.596;23.044;2023-02-12T04:25:14;42.07;;;26.57;;
15567;SDS011;7885;42.596;23.044;2023-02-12T04:27:54;40.93;;;25.67;;
15567;SDS011;7885;42.596;23.044;2023-02-12T04:30:26;48.70;;;29.63;;
15567;SDS011;7885;42.596;23.044;2023-02-12T04:32:59;50.37;;;30.97;;
15567;SDS011;7885;42.596;23.044;2023-02-12T04:35:30;53.70;;;31.30;;
15567;SDS011;7885;42.596;23.044;2023-02-12T04:38:01;51.03;;;31.33;;
15567;SDS011;7885;42.596;23.044;2023-02-12T04:40:34;50.77;;;32.70;;
15567;SDS011;7885;42.596;23.044;2023-02-12T04:43:03;43.00;;;28.30;;
15567;SDS011;7885;42.596;23.044;2023-02-12T04:45:31;38.63;;;25.77;;
15567;SDS011;7885;42.596;23.044;2023-02-12T04:48:01;40.97;;;25.73;;
15567;SDS011;7885;42.596;23.044;2023-02-12T04:50:33;37.20;;;23.27;;
15567;SDS011;7885;42.596;23.044;2023-02-12T04:53:04;39.53;;;21.27;;
15567;SDS011;7885;42.596;23.044;2023-02-12T04:55:30;31.87;;;20.03;;
15567;SDS011;7885;42.596;23.044;2023-02-12T04:57:57;30.47;;;20.07;;
15567;SDS011;7885;42.596;23.044;2023-02-12T05:00:24;32.33;;;20.63;;
15567;SDS011;7885;42.596;23.044;2023-02-12T05:02:51;32.60;;;19.63;;
15567;SDS011;7885;42.596;23.044;2023-02-12T05:05:19;37.20;;;21.60;;
15567;SDS011;7885;42.596;23.044;2023-02-12T05:07:46;38.90;;;24.83;;
15567;SDS011;7885;42.596;23.044;2023-02-12T05:10:12;37.47;;;24.27;;
15567;SDS011;7885;42.596;23.044;2023-02-12T05:12:39;68.83;;;39.23;;
15567;SDS011;7885;42.596;23.044;2023-02-12T05:15:06;74.67;;;41.00;;
15567;SDS011;7885;42.596;23.044;2023-02-12T05:17:33;39.40;;;26.07;;
15567;SDS011;7885;42.596;23.044;2023-02-12T05:20:00;75.03;;;43.03;;
15567;SDS011;7885;42.596;23.044;2023-02-12T05:22:28;80.37;;;45.77;;
15567;SDS011;7885;42.596;23.044;2023-02-12T05:24:54;84.83;;;44.00;;
15567;SDS011;7885;42.596;23.044;2023-02-12T05:27:21;70.87;;;37.70;;
15567;SDS011;7885;42.596;23.044;2023-02-12T05:29:48;82.17;;;42.03;;
15567;SDS011;7885;42.596;23.044;2023-02-12T05:32:14;66.07;;;38.70;;
15567;SDS011;7885;42.596;23.044;2023-02-12T05:34:41;59.37;;;32.17;;
15567;SDS011;7885;42.596;23.044;2023-02-12T05:37:08;72.97;;;41.43;;
15567;SDS011;7885;42.596;23.044;2023-02-12T05:39:36;57.50;;;35.00;;
15567;SDS011;7885;42.596;23.044;2023-02-12T05:42:03;58.53;;;35.47;;
15567;SDS011;7885;42.596;23.044;2023-02-12T05:44:29;58.93;;;36.93;;
15567;SDS011;7885;42.596;23.044;2023-02-12T05:46:56;57.30;;;39.50;;
15567;SDS011;7885;42.596;23.044;2023-02-12T05:49:23;53.20;;;36.67;;
15567;SDS011;7885;42.596;23.044;2023-02-12T05:51:50;62.23;;;38.43;;
15567;SDS011;7885;42.596;23.044;2023-02-12T05:54:16;77.63;;;42.67;;
15567;SDS011;7885;42.596;23.044;2023-02-12T05:56:45;72.17;;;46.57;;
15567;SDS011;7885;42.596;23.044;2023-02-12T05:59:13;45.17;;;28.67;;
15567;SDS011;7885;42.596;23.044;2023-02-12T06:01:43;30.30;;;20.90;;
15567;SDS011;7885;42.596;23.044;2023-02-12T06:04:12;34.53;;;20.70;;
15567;SDS011;7885;42.596;23.044;2023-02-12T06:06:40;31.07;;;19.67;;
15567;SDS011;7885;42.596;23.044;2023-02-12T06:09:07;29.53;;;18.53;;
15567;SDS011;7885;42.596;23.044;2023-02-12T06:11:34;35.27;;;21.17;;
15567;SDS011;7885;42.596;23.044;2023-02-12T06:14:03;25.13;;;17.63;;
15567;SDS011;7885;42.596;23.044;2023-02-12T06:16:30;25.60;;;16.30;;
15567;SDS011;7885;42.596;23.044;2023-02-12T06:18:57;25.73;;;17.67;;
15567;SDS011;7885;42.596;23.044;2023-02-12T06:21:26;29.40;;;19.53;;
15567;SDS011;7885;42.596;23.044;2023-02-12T06:23:53;31.80;;;20.87;;
15567;SDS011;7885;42.596;23.044;2023-02-12T06:26:20;33.30;;;22.93;;
15567;SDS011;7885;42.596;23.044;2023-02-12T06:28:48;33.90;;;20.03;;
15567;SDS011;7885;42.596;23.044;2023-02-12T06:31:20;27.47;;;18.07;;
15567;SDS011;7885;42.596;23.044;2023-02-12T06:33:48;23.77;;;17.10;;
15567;SDS011;7885;42.596;23.044;2023-02-12T06:36:16;23.37;;;16.90;;
15567;SDS011;7885;42.596;23.044;2023-02-12T06:38:43;23.80;;;16.80;;
15567;SDS011;7885;42.596;23.044;2023-02-12T06:41:10;26.00;;;17.50;;
15567;SDS011;7885;42.596;23.044;2023-02-12T06:43:37;30.07;;;19.00;;
15567;SDS011;7885;42.596;23.044;2023-02-12T06:46:04;26.33;;;18.20;;
15567;SDS011;7885;42.596;23.044;2023-02-12T06:48:33;35.87;;;26.13;;
15567;SDS011;7885;42.596;23.044;2023-02-12T06:51:03;31.77;;;24.90;;
15567;SDS011;7885;42.596;23.044;2023-02-12T06:53:32;28.93;;;21.97;;
15567;SDS011;7885;42.596;23.044;2023-02-12T06:56:00;32.40;;;24.70;;
15567;SDS011;7885;42.596;23.044;2023-02-12T06:58:27;32.13;;;23.40;;
15567;SDS011;7885;42.596;23.044;2023-02-12T07:00:54;29.50;;;20.77;;
15567;SDS011;7885;42.596;23.044;2023-02-12T07:03:21;27.50;;;20.30;;
15567;SDS011;7885;42.596;23.044;2023-02-12T07:05:49;37.83;;;23.20;;
15567;SDS011;7885;42.596;23.044;2023-02-12T07:08:16;30.40;;;22.70;;
15567;SDS011;7885;42.596;23.044;2023-02-12T07:10:46;30.03;;;22.57;;
15567;SDS011;7885;42.596;23.044;2023-02-12T07:13:14;33.47;;;23.80;;
15567;SDS011;7885;42.596;23.044;2023-02-12T07:15:40;32.97;;;24.63;;
15567;SDS011;7885;42.596;23.044;2023-02-12T07:18:07;32.43;;;23.17;;
15567;SDS011;7885;42.596;23.044;2023-02-12T07:20:34;36.70;;;24.60;;
15567;SDS011;7885;42.596;23.044;2023-02-12T07:23:02;38.07;;;24.40;;
15567;SDS011;7885;42.596;23.044;2023-02-12T07:25:28;37.90;;;25.03;;
15567;SDS011;7885;42.596;23.044;2023-02-12T07:27:55;32.87;;;23.70;;
15567;SDS011;7885;42.596;23.044;2023-02-12T07:30:22;27.20;;;17.60;;
15567;SDS011;7885;42.596;23.044;2023-02-12T07:32:48;22.73;;;17.20;;
15567;SDS011;7885;42.596;23.044;2023-02-12T07:35:15;22.03;;;16.33;;
15567;SDS011;7885;42.596;23.044;2023-02-12T07:37:42;24.17;;;15.70;;
15567;SDS011;7885;42.596;23.044;2023-02-12T07:40:10;21.93;;;16.77;;
15567;SDS011;7885;42.596;23.044;2023-02-12T07:42:37;24.23;;;17.30;;
15567;SDS011;7885;42.596;23.044;2023-02-12T07:45:04;21.83;;;15.93;;
15567;SDS011;7885;42.596;23.044;2023-02-12T07:47:31;30.07;;;22.00;;
15567;SDS011;7885;42.596;23.044;2023-02-12T07:49:59;25.83;;;18.20;;
15567;SDS011;7885;42.596;23.044;2023-02-12T07:52:26;22.57;;;17.63;;
15567;SDS011;7885;42.596;23.044;2023-02-12T07:54:53;22.03;;;16.47;;
15567;SDS011;7885;42.596;23.044;2023-02-12T07:57:21;23.33;;;17.73;;
15567;SDS011;7885;42.596;23.044;2023-02-12T07:59:47;25.23;;;18.43;;
15567;SDS011;7885;42.596;23.044;2023-02-12T08:02:14;23.00;;;17.30;;
15567;SDS011;7885;42.596;23.044;2023-02-12T08:04:41;23.87;;;16.70;;
15567;SDS011;7885;42.596;23.044;2023-02-12T08:07:07;26.33;;;20.10;;
15567;SDS011;7885;42.596;23.044;2023-02-12T08:09:34;25.40;;;19.33;;
15567;SDS011;7885;42.596;23.044;2023-02-12T08:12:01;37.13;;;25.63;;
15567;SDS011;7885;42.596;23.044;2023-02-12T08:14:29;37.37;;;26.70;;
15567;SDS011;7885;42.596;23.044;2023-02-12T08:16:56;34.07;;;23.27;;
15567;SDS011;7885;42.596;23.044;2023-02-12T08:19:22;36.50;;;23.43;;
15567;SDS011;7885;42.596;23.044;2023-02-12T08:21:49;32.20;;;23.17;;
15567;SDS011;7885;42.596;23.044;2023-02-12T08:24:17;35.13;;;23.93;;
15567;SDS011;7885;42.596;23.044;2023-02-12T08:26:46;38.73;;;26.13;;
15567;SDS011;7885;42.596;23.044;2023-02-12T08:29:14;39.90;;;25.10;;
15567;SDS011;7885;42.596;23.044;2023-02-12T08:31:43;36.70;;;24.87;;
15567;SDS011;7885;42.596;23.044;2023-02-12T08:34:15;36.00;;;25.77;;
15567;SDS011;7885;42.596;23.044;2023-02-12T08:36:44;38.83;;;24.80;;
15567;SDS011;7885;42.596;23.044;2023-02-12T08:39:12;46.77;;;30.07;;
15567;SDS011;7885;42.596;23.044;2023-02-12T08:41:39;45.63;;;29.00;;
15567;SDS011;7885;42.596;23.044;2023-02-12T08:44:07;48.67;;;29.47;;
15567;SDS011;7885;42.596;23.044;2023-02-12T08:46:35;51.33;;;30.83;;
15567;SDS011;7885;42.596;23.044;2023-02-12T08:49:05;47.80;;;30.60;;
15567;SDS011;7885;42.596;23.044;2023-02-12T08:51:34;40.70;;;27.40;;
15567;SDS011;7885;42.596;23.044;2023-02-12T08:54:04;30.63;;;23.00;;
15567;SDS011;7885;42.596;23.044;2023-02-12T08:56:32;30.33;;;20.90;;
15567;SDS011;7885;42.596;23.044;2023-02-12T08:59:01;20.90;;;15.23;;
15567;SDS011;7885;42.596;23.044;2023-02-12T09:01:30;25.63;;;18.90;;
15567;SDS011;7885;42.596;23.044;2023-02-12T09:03:58;24.27;;;18.97;;
15567;SDS011;7885;42.596;23.044;2023-02-12T09:06:26;30.50;;;20.60;;
15567;SDS011;7885;42.596;23.044;2023-02-12T09:08:54;43.63;;;29.33;;
15567;SDS011;7885;42.596;23.044;2023-02-12T09:11:21;29.50;;;21.73;;
15567;SDS011;7885;42.596;23.044;2023-02-12T09:13:54;27.07;;;21.60;;
15567;SDS011;7885;42.596;23.044;2023-02-12T09:16:23;32.87;;;25.10;;
15567;SDS011;7885;42.596;23.044;2023-02-12T09:18:49;43.27;;;32.10;;
15567;SDS011;7885;42.596;23.044;2023-02-12T09:21:17;51.10;;;33.60;;
15567;SDS011;7885;42.596;23.044;2023-02-12T09:23:46;34.53;;;24.33;;
15567;SDS011;7885;42.596;23.044;2023-02-12T09:26:15;53.57;;;32.60;;
15567;SDS011;7885;42.596;23.044;2023-02-12T09:28:45;121.30;;;66.10;;
15567;SDS011;7885;42.596;23.044;2023-02-12T09:31:13;145.70;;;85.23;;
15567;SDS011;7885;42.596;23.044;2023-02-12T09:33:41;136.30;;;77.60;;
15567;SDS011;7885;42.596;23.044;2023-02-12T09:36:09;84.17;;;52.47;;
15567;SDS011;7885;42.596;23.044;2023-02-12T09:38:38;87.93;;;54.97;;
15567;SDS011;7885;42.596;23.044;2023-02-12T09:41:11;128.07;;;90.07;;
15567;SDS011;7885;42.596;23.044;2023-02-12T09:43:59;88.60;;;63.20;;
15567;SDS011;7885;42.596;23.044;2023-02-12T09:46:32;69.23;;;45.83;;
15567;SDS011;7885;42.596;23.044;2023-02-12T09:49:07;63.23;;;40.83;;
15567;SDS011;7885;42.596;23.044;2023-02-12T09:51:35;41.80;;;31.40;;
15567;SDS011;7885;42.596;23.044;2023-02-12T09:54:04;46.67;;;34.80;;
15567;SDS011;7885;42.596;23.044;2023-02-12T09:56:34;40.30;;;28.97;;
15567;SDS011;7885;42.596;23.044;2023-02-12T09:59:04;41.63;;;28.90;;
15567;SDS011;7885;42.596;23.044;2023-02-12T10:01:32;39.93;;;27.97;;
15567;SDS011;7885;42.596;23.044;2023-02-12T10:03:59;35.07;;;25.77;;
15567;SDS011;7885;42.596;23.044;2023-02-12T10:06:27;37.90;;;27.87;;
15567;SDS011;7885;42.596;23.044;2023-02-12T10:09:06;37.87;;;28.60;;
15567;SDS011;7885;42.596;23.044;2023-02-12T10:11:52;38.90;;;28.40;;
15567;SDS011;7885;42.596;23.044;2023-02-12T10:14:33;39.53;;;30.80;;
15567;SDS011;7885;42.596;23.044;2023-02-12T10:17:12;40.47;;;28.83;;
15567;SDS011;7885;42.596;23.044;2023-02-12T10:22:47;48.47;;;34.60;;
15567;SDS011;7885;42.596;23.044;2023-02-12T10:25:25;47.13;;;33.50;;
15567;SDS011;7885;42.596;23.044;2023-02-12T10:27:58;53.57;;;38.37;;
15567;SDS011;7885;42.596;23.044;2023-02-12T10:30:30;49.23;;;37.27;;
15567;SDS011;7885;42.596;23.044;2023-02-12T10:33:06;43.43;;;31.20;;
15567;SDS011;7885;42.596;23.044;2023-02-12T10:35:38;34.30;;;26.73;;
15567;SDS011;7885;42.596;23.044;2023-02-12T10:38:12;37.33;;;28.13;;
15567;SDS011;7885;42.596;23.044;2023-02-12T10:40:43;39.07;;;29.40;;
15567;SDS011;7885;42.596;23.044;2023-02-12T10:43:12;32.20;;;24.23;;
15567;SDS011;7885;42.596;23.044;2023-02-12T10:45:40;36.20;;;27.50;;
15567;SDS011;7885;42.596;23.044;2023-02-12T10:48:09;34.60;;;26.37;;
15567;SDS011;7885;42.596;23.044;2023-02-12T10:50:44;33.97;;;25.67;;
15567;SDS011;7885;42.596;23.044;2023-02-12T10:53:29;28.57;;;22.70;;
15567;SDS011;7885;42.596;23.044;2023-02-12T10:58:51;28.63;;;21.33;;
15567;SDS011;7885;42.596;23.044;2023-02-12T11:01:24;29.10;;;21.50;;
15567;SDS011;7885;42.596;23.044;2023-02-12T11:03:53;28.67;;;22.27;;
15567;SDS011;7885;42.596;23.044;2023-02-12T11:06:21;24.17;;;18.67;;
15567;SDS011;7885;42.596;23.044;2023-02-12T11:08:51;35.00;;;26.17;;
15567;SDS011;7885;42.596;23.044;2023-02-12T11:11:19;26.97;;;22.53;;
15567;SDS011;7885;42.596;23.044;2023-02-12T11:13:54;31.57;;;23.80;;
15567;SDS011;7885;42.596;23.044;2023-02-12T11:16:27;32.70;;;25.33;;
15567;SDS011;7885;42.596;23.044;2023-02-12T11:18:58;30.27;;;24.03;;
15567;SDS011;7885;42.596;23.044;2023-02-12T11:21:28;32.47;;;25.17;;
15567;SDS011;7885;42.596;23.044;2023-02-12T11:23:55;25.00;;;20.20;;
15567;SDS011;7885;42.596;23.044;2023-02-12T11:26:24;33.67;;;22.77;;
15567;SDS011;7885;42.596;23.044;2023-02-12T11:28:55;27.17;;;20.90;;
15567;SDS011;7885;42.596;23.044;2023-02-12T11:31:24;28.93;;;21.27;;
15567;SDS011;7885;42.596;23.044;2023-02-12T11:34:08;24.80;;;19.47;;
15567;SDS011;7885;42.596;23.044;2023-02-12T11:36:40;32.17;;;24.47;;
15567;SDS011;7885;42.596;23.044;2023-02-12T11:39:13;35.10;;;28.20;;
15567;SDS011;7885;42.596;23.044;2023-02-12T11:41:49;50.17;;;38.90;;
15567;SDS011;7885;42.596;23.044;2023-02-12T11:44:21;35.87;;;27.53;;
15567;SDS011;7885;42.596;23.044;2023-02-12T11:46:52;30.80;;;24.70;;
15567;SDS011;7885;42.596;23.044;2023-02-12T11:49:23;28.43;;;21.73;;
15567;SDS011;7885;42.596;23.044;2023-02-12T11:51:53;29.10;;;21.37;;
15567;SDS011;7885;42.596;23.044;2023-02-12T11:54:21;33.53;;;24.77;;
15567;SDS011;7885;42.596;23.044;2023-02-12T11:56:51;28.37;;;22.07;;
15567;SDS011;7885;42.596;23.044;2023-02-12T12:02:08;21.50;;;17.77;;
15567;SDS011;7885;42.596;23.044;2023-02-12T12:04:47;27.10;;;20.17;;
15567;SDS011;7885;42.596;23.044;2023-02-12T12:07:18;32.07;;;25.10;;
15567;SDS011;7885;42.596;23.044;2023-02-12T12:09:52;23.20;;;19.07;;
15567;SDS011;7885;42.596;23.044;2023-02-12T12:12:27;22.60;;;18.97;;
15567;SDS011;7885;42.596;23.044;2023-02-12T12:15:03;29.83;;;23.60;;
15567;SDS011;7885;42.596;23.044;2023-02-12T12:17:53;27.13;;;21.63;;
15567;SDS011;7885;42.596;23.044;2023-02-12T12:20:42;25.97;;;20.00;;
15567;SDS011;7885;42.596;23.044;2023-02-12T12:23:15;26.23;;;20.23;;
15567;SDS011;7885;42.596;23.044;2023-02-12T12:25:46;24.73;;;20.30;;
15567;SDS011;7885;42.596;23.044;2023-02-12T12:28:27;21.10;;;18.10;;
15567;SDS011;7885;42.596;23.044;2023-02-12T12:31:04;23.40;;;19.40;;
15567;SDS011;7885;42.596;23.044;2023-02-12T12:33:39;29.63;;;22.70;;
15567;SDS011;7885;42.596;23.044;2023-02-12T12:36:17;32.20;;;23.03;;
15567;SDS011;7885;42.596;23.044;2023-02-12T12:39:04;32.50;;;24.80;;
15567;SDS011;7885;42.596;23.044;2023-02-12T12:41:44;28.10;;;22.00;;
15567;SDS011;7885;42.596;23.044;2023-02-12T12:44:24;27.07;;;21.47;;
15567;SDS011;7885;42.596;23.044;2023-02-12T12:47:06;30.10;;;24.40;;
15567;SDS011;7885;42.596;23.044;2023-02-12T12:49:47;31.80;;;24.97;;
15567;SDS011;7885;42.596;23.044;2023-02-12T12:55:38;30.33;;;23.10;;
15567;SDS011;7885;42.596;23.044;2023-02-12T12:58:20;26.87;;;21.23;;
15567;SDS011;7885;42.596;23.044;2023-02-12T13:00:59;30.97;;;23.73;;
15567;SDS011;7885;42.596;23.044;2023-02-12T13:03:40;30.67;;;24.17;;
15567;SDS011;7885;42.596;23.044;2023-02-12T13:06:37;26.17;;;21.07;;
15567;SDS011;7885;42.596;23.044;2023-02-12T13:09:16;31.07;;;24.97;;
15567;SDS011;7885;42.596;23.044;2023-02-12T13:12:05;32.57;;;26.27;;
15567;SDS011;7885;42.596;23.044;2023-02-12T13:15:02;27.13;;;22.47;;
15567;SDS011;7885;42.596;23.044;2023-02-12T13:17:40;30.67;;;23.63;;
15567;SDS011;7885;42.596;23.044;2023-02-12T13:20:14;24.50;;;20.17;;
15567;SDS011;7885;42.596;23.044;2023-02-12T13:22:49;27.47;;;22.40;;
15567;SDS011;7885;42.596;23.044;2023-02-12T13:25:23;26.50;;;21.73;;
15567;SDS011;7885;42.596;23.044;2023-02-12T13:27:56;26.17;;;20.53;;
15567;SDS011;7885;42.596;23.044;2023-02-12T13:30:26;30.90;;;23.57;;
15567;SDS011;7885;42.596;23.044;2023-02-12T13:33:00;29.00;;;23.40;;
15567;SDS011;7885;42.596;23.044;2023-02-12T13:35:33;25.17;;;21.10;;
15567;SDS011;7885;42.596;23.044;2023-02-12T13:38:03;25.60;;;21.33;;
15567;SDS011;7885;42.596;23.044;2023-02-12T13:40:33;27.00;;;22.03;;
15567;SDS011;7885;42.596;23.044;2023-02-12T13:43:04;24.30;;;20.90;;
15567;SDS011;7885;42.596;23.044;2023-02-12T13:45:42;26.97;;;22.70;;
15567;SDS011;7885;42.596;23.044;2023-02-12T13:51:09;24.40;;;20.23;;
15567;SDS011;7885;42.596;23.044;2023-02-12T14:03:23;27.77;;;22.43;;
15567;SDS011;7885;42.596;23.044;2023-02-12T14:06:05;24.77;;;20.60;;
15567;SDS011;7885;42.596;23.044;2023-02-12T14:08:40;25.73;;;21.27;;
15567;SDS011;7885;42.596;23.044;2023-02-12T14:11:09;25.80;;;20.90;;
15567;SDS011;7885;42.596;23.044;2023-02-12T14:13:44;23.80;;;19.90;;
15567;SDS011;7885;42.596;23.044;2023-02-12T14:16:36;26.07;;;21.23;;
15567;SDS011;7885;42.596;23.044;2023-02-12T14:22:10;25.50;;;19.97;;
15567;SDS011;7885;42.596;23.044;2023-02-12T14:27:33;32.10;;;24.57;;
15567;SDS011;7885;42.596;23.044;2023-02-12T14:32:55;35.10;;;26.00;;
15567;SDS011;7885;42.596;23.044;2023-02-12T14:35:37;34.73;;;25.70;;
15567;SDS011;7885;42.596;23.044;2023-02-12T14:41:21;33.27;;;26.20;;
15567;SDS011;7885;42.596;23.044;2023-02-12T14:47:11;39.07;;;29.67;;
15567;SDS011;7885;42.596;23.044;2023-02-12T14:49:43;37.50;;;28.47;;
15567;SDS011;7885;42.596;23.044;2023-02-12T14:52:13;42.57;;;31.63;;
15567;SDS011;7885;42.596;23.044;2023-02-12T14:54:44;51.43;;;34.87;;
15567;SDS011;7885;42.596;23.044;2023-02-12T14:57:19;58.13;;;38.20;;
15567;SDS011;7885;42.596;23.044;2023-02-12T14:59:49;51.63;;;33.37;;
15567;SDS011;7885;42.596;23.044;2023-02-12T15:02:22;49.53;;;32.73;;
15567;SDS011;7885;42.596;23.044;2023-02-12T15:04:51;48.80;;;32.67;;
15567;SDS011;7885;42.596;23.044;2023-02-12T15:07:21;52.93;;;34.60;;
15567;SDS011;7885;42.596;23.044;2023-02-12T15:09:55;44.47;;;32.63;;
15567;SDS011;7885;42.596;23.044;2023-02-12T15:12:33;41.83;;;30.57;;
15567;SDS011;7885;42.596;23.044;2023-02-12T15:15:06;46.40;;;33.90;;
15567;SDS011;7885;42.596;23.044;2023-02-12T15:17:47;44.17;;;32.47;;
15567;SDS011;7885;42.596;23.044;2023-02-12T15:20:21;41.23;;;30.97;;
15567;SDS011;7885;42.596;23.044;2023-02-12T15:22:50;45.60;;;31.80;;
15567;SDS011;7885;42.596;23.044;2023-02-12T15:25:21;35.33;;;26.43;;